createdAt,value
2023-11-18T00:01:44.856Z,100264.84
2023-11-18T00:04:32.425Z,100263.40
2023-11-18T00:07:20.433Z,100264.38
2023-11-18T00:10:09.871Z,100267.10
2023-11-18T00:12:57.402Z,100267.32
2023-11-18T00:15:47.419Z,100271.70
2023-11-18T00:18:35.655Z,100276.83
2023-11-18T00:21:23.451Z,100275.98
2023-11-18T00:24:11.061Z,100282.24
2023-11-18T00:26:58.964Z,100278.95
2023-11-18T00:29:46.576Z,100282.19
2023-11-18T00:32:34.592Z,100282.89
2023-11-18T00:35:22.410Z,100290.48
2023-11-18T00:38:11.602Z,100296.06
2023-11-18T00:40:59.775Z,100302.89
2023-11-18T00:43:47.672Z,100304.58
2023-11-18T00:46:37.292Z,100310.40
2023-11-18T00:49:27.320Z,100310.36
2023-11-18T00:52:16.148Z,100312.98
2023-11-18T00:55:04.603Z,100315.54
2023-11-18T00:57:52.200Z,100314.25
2023-11-18T01:00:40.294Z,100319.33
2023-11-18T01:03:27.992Z,100321.17
2023-11-18T01:06:18.748Z,100323.70
2023-11-18T01:09:08.769Z,100322.55
2023-11-18T01:12:07.759Z,100324.55
2023-11-18T01:14:57.157Z,100324.05
2023-11-18T01:17:45.696Z,100323.33
2023-11-18T01:20:33.737Z,100319.42
2023-11-18T01:23:21.799Z,100323.58
2023-11-18T01:26:11.073Z,100322.96
2023-11-18T01:28:58.913Z,100326.80
2023-11-18T01:31:52.211Z,100326.45
2023-11-18T01:34:41.250Z,100328.39
2023-11-18T01:37:29.485Z,100328.56
2023-11-18T01:40:17.274Z,100332.98
2023-11-18T01:43:12.521Z,100335.80
2023-11-18T01:46:04.263Z,100334.75
2023-11-18T01:48:53.513Z,100334.61
2023-11-18T01:51:45.118Z,100335.02
2023-11-18T01:54:33.443Z,100333.26
2023-11-18T01:57:21.234Z,100339.45
2023-11-18T02:00:12.340Z,100337.94
2023-11-18T02:03:05.658Z,100339.30
2023-11-18T02:05:54.066Z,100344.99
2023-11-18T02:08:42.802Z,100342.80
2023-11-18T02:11:42.827Z,100341.04
2023-11-18T02:14:33.096Z,100348.09
2023-11-18T02:17:27.376Z,100347.20
2023-11-18T02:20:18.037Z,100352.79
2023-11-18T02:23:08.664Z,100350.73
2023-11-18T02:25:57.183Z,100347.66
2023-11-18T02:28:45.070Z,100341.58
2023-11-18T02:31:38.998Z,100341.34
2023-11-18T02:34:33.468Z,100347.59
2023-11-18T02:37:22.738Z,100344.63
2023-11-18T02:40:15.981Z,100340.85
2023-11-18T02:43:10.579Z,100341.86
2023-11-18T02:45:59.509Z,100343.50
2023-11-18T02:48:47.591Z,100348.04
2023-11-18T02:51:40.475Z,100356.04
2023-11-18T02:54:28.379Z,100356.30
2023-11-18T02:57:16.233Z,100358.13
2023-11-18T03:00:12.904Z,100361.61
2023-11-18T03:03:00.885Z,100373.20
2023-11-18T03:05:51.071Z,100377.35
2023-11-18T03:08:38.938Z,100380.27
2023-11-18T03:11:26.680Z,100380.16
2023-11-18T03:14:14.598Z,100384.84
2023-11-18T03:17:03.364Z,100386.98
2023-11-18T03:19:51.879Z,100382.52
2023-11-18T03:22:39.793Z,100378.88
2023-11-18T03:25:27.643Z,100372.31
2023-11-18T03:28:15.803Z,100376.55
2023-11-18T03:31:07.441Z,100377.98
2023-11-18T03:33:54.996Z,100373.36
2023-11-18T03:36:42.875Z,100372.36
2023-11-18T03:39:30.659Z,100377.55
2023-11-18T03:42:18.420Z,100378.44
2023-11-18T03:45:06.893Z,100380.88
2023-11-18T03:47:54.850Z,100382.38
2023-11-18T03:50:42.955Z,100387.21
2023-11-18T03:53:30.791Z,100392.06
2023-11-18T03:56:21.685Z,100397.19
2023-11-18T04:01:59.327Z,100401.75
2023-11-18T04:04:47.457Z,100410.21
2023-11-18T04:07:35.833Z,100417.46
2023-11-18T04:10:23.866Z,100422.80
2023-11-18T04:13:11.633Z,100428.73
2023-11-18T04:15:59.192Z,100427.33
2023-11-18T04:18:47.148Z,100432.91
2023-11-18T04:21:34.844Z,100435.14
2023-11-18T04:24:22.631Z,100435.94
2023-11-18T04:27:10.408Z,100432.04
2023-11-18T04:29:57.970Z,100435.29
2023-11-18T04:32:45.552Z,100437.43
2023-11-18T04:35:35.840Z,100434.73
2023-11-18T04:38:24.016Z,100434.04
2023-11-18T04:41:11.958Z,100435.86
2023-11-18T04:44:00.026Z,100431.99
2023-11-18T04:46:48.045Z,100433.80
2023-11-18T04:49:36.324Z,100441.27
2023-11-18T04:52:24.422Z,100442.42
2023-11-18T04:55:14.746Z,100442.94
2023-11-18T04:58:02.568Z,100452.46
2023-11-18T05:00:50.030Z,100456.18
2023-11-18T05:03:38.230Z,100461.23
2023-11-18T05:06:27.092Z,100464.40
2023-11-18T05:09:17.469Z,100462.89
2023-11-18T05:12:06.069Z,100472.58
2023-11-18T05:14:53.898Z,100478.08
2023-11-18T05:17:44.185Z,100482.55
2023-11-18T05:20:32.085Z,100489.14
2023-11-18T05:23:20.162Z,100491.90
2023-11-18T05:26:08.256Z,100491.75
2023-11-18T05:28:56.424Z,100494.54
2023-11-18T05:31:44.920Z,100492.98
2023-11-18T05:34:33.055Z,100496.86
2023-11-18T05:37:22.779Z,100501.95
2023-11-18T05:40:12.861Z,100497.70
2023-11-18T05:43:03.551Z,100492.55
2023-11-18T05:46:16.258Z,100497.44
2023-11-18T05:49:09.550Z,100500.40
2023-11-18T05:51:57.587Z,100505.19
2023-11-18T05:54:45.751Z,100500.55
2023-11-18T05:57:33.448Z,100499.52
2023-11-18T06:00:27.729Z,100499.10
2023-11-18T06:03:21.294Z,100505.02
2023-11-18T06:06:10.915Z,100508.26
2023-11-18T06:09:00.414Z,100510.98
2023-11-18T06:11:50.920Z,100513.19
2023-11-18T06:14:39.933Z,100518.31
2023-11-18T06:17:29.293Z,100518.36
2023-11-18T06:20:18.517Z,100521.56
2023-11-18T06:23:07.919Z,100521.84
2023-11-18T06:25:55.642Z,100520.98
2023-11-18T06:28:45.841Z,100521.84
2023-11-18T06:31:34.178Z,100523.65
2023-11-18T06:34:22.065Z,100526.98
2023-11-18T06:37:09.680Z,100532.19
2023-11-18T06:39:58.134Z,100534.24
2023-11-18T06:42:49.757Z,100538.73
2023-11-18T06:45:38.677Z,100543.76
2023-11-18T06:48:26.352Z,100544.96
2023-11-18T06:51:17.799Z,100544.83
2023-11-18T06:54:13.171Z,100541.80
2023-11-18T06:57:01.134Z,100542.41
2023-11-18T06:59:49.872Z,100542.38
2023-11-18T07:02:39.576Z,100543.95
2023-11-18T07:05:27.699Z,100547.61
2023-11-18T07:08:15.461Z,100551.09
2023-11-18T07:11:04.765Z,100558.93
2023-11-18T07:13:57.746Z,100551.20
2023-11-18T07:16:45.909Z,100552.73
2023-11-18T07:19:37.819Z,100555.66
2023-11-18T07:22:26.560Z,100559.39
2023-11-18T07:25:14.349Z,100560.95
2023-11-18T07:28:02.136Z,100563.30
2023-11-18T07:30:49.829Z,100567.33
2023-11-18T07:33:38.135Z,100566.48
2023-11-18T07:36:27.136Z,100570.04
2023-11-18T07:39:25.746Z,100571.66
2023-11-18T07:42:15.936Z,100577.66
2023-11-18T07:45:18.973Z,100576.06
2023-11-18T07:48:08.610Z,100576.02
2023-11-18T07:50:58.276Z,100572.34
2023-11-18T07:53:46.097Z,100572.03
2023-11-18T07:56:33.863Z,100574.61
2023-11-18T07:59:23.219Z,100573.79
2023-11-18T08:02:12.100Z,100567.48
2023-11-18T08:04:59.845Z,100571.05
2023-11-18T08:07:47.727Z,100574.13
2023-11-18T08:10:39.605Z,100577.48
2023-11-18T08:13:27.570Z,100577.73
2023-11-18T08:16:16.103Z,100578.68
2023-11-18T08:19:03.959Z,100576.10
2023-11-18T08:21:51.664Z,100574.05
2023-11-18T08:24:39.862Z,100574.67
2023-11-18T08:27:27.823Z,100577.41
2023-11-18T08:30:19.206Z,100580.96
2023-11-18T08:33:10.381Z,100586.96
2023-11-18T08:35:58.179Z,100587.59
2023-11-18T08:38:48.475Z,100589.41
2023-11-18T08:41:36.762Z,100594.16
2023-11-18T08:44:24.931Z,100598.34
2023-11-18T08:47:14.016Z,100597.48
2023-11-18T08:50:13.347Z,100596.59
2023-11-18T08:53:05.497Z,100594.52
2023-11-18T08:55:55.704Z,100595.70
2023-11-18T08:58:47.089Z,100602.66
2023-11-18T09:01:35.315Z,100614.08
2023-11-18T09:04:28.736Z,100615.78
2023-11-18T09:07:17.627Z,100615.52
2023-11-18T09:10:06.519Z,100614.39
2023-11-18T09:12:57.527Z,100609.96
2023-11-18T09:15:46.322Z,100613.98
2023-11-18T09:18:37.294Z,100614.48
2023-11-18T09:21:31.080Z,100614.73
2023-11-18T09:24:21.077Z,100615.79
2023-11-18T09:27:10.595Z,100615.21
2023-11-18T09:29:58.304Z,100617.80
2023-11-18T09:32:48.962Z,100623.45
2023-11-18T09:35:36.746Z,100630.61
2023-11-18T09:38:24.405Z,100630.44
2023-11-18T09:41:12.692Z,100629.02
2023-11-18T09:44:03.615Z,100628.84
2023-11-18T09:47:05.430Z,100630.00
2023-11-18T09:49:58.329Z,100630.70
2023-11-18T09:52:53.287Z,100629.19
2023-11-18T09:56:39.817Z,100630.88
2023-11-18T09:59:46.157Z,100638.64
2023-11-18T10:02:34.809Z,100643.08
2023-11-18T10:05:24.370Z,100645.41
2023-11-18T10:08:12.291Z,100640.77
2023-11-18T10:11:10.774Z,100639.16
2023-11-18T10:13:58.985Z,100637.52
2023-11-18T10:16:48.603Z,100640.61
2023-11-18T10:19:58.262Z,100638.25
2023-11-18T10:22:46.788Z,100640.67
2023-11-18T10:25:35.993Z,100648.63
2023-11-18T10:28:31.575Z,100651.90
2023-11-18T10:31:20.323Z,100654.83
2023-11-18T10:34:08.656Z,100656.61
2023-11-18T10:37:04.416Z,100654.06
2023-11-18T10:39:53.748Z,100653.38
2023-11-18T10:42:44.230Z,100658.38
2023-11-18T10:45:33.934Z,100656.77
2023-11-18T10:48:22.423Z,100650.57
2023-11-18T10:51:15.378Z,100652.73
2023-11-18T10:54:05.386Z,100659.89
2023-11-18T10:56:57.897Z,100661.92
2023-11-18T11:00:19.682Z,100663.88
2023-11-18T11:03:07.465Z,100664.83
2023-11-18T11:05:55.777Z,100667.81
2023-11-18T11:08:43.453Z,100660.94
2023-11-18T11:11:47.905Z,100658.34
2023-11-18T11:14:44.715Z,100660.45
2023-11-18T11:17:37.842Z,100662.98
2023-11-18T11:20:27.639Z,100664.45
2023-11-18T11:23:54.958Z,100658.39
2023-11-18T11:27:08.692Z,100663.71
2023-11-18T11:30:11.968Z,100663.52
2023-11-18T11:33:10.095Z,100660.02
2023-11-18T11:36:03.502Z,100662.31
2023-11-18T11:38:57.260Z,100665.33
2023-11-18T11:41:52.764Z,100671.41
2023-11-18T11:44:43.618Z,100667.17
2023-11-18T11:47:37.881Z,100672.39
2023-11-18T11:50:34.351Z,100677.20
2023-11-18T11:53:28.326Z,100684.35
2023-11-18T11:56:22.516Z,100683.00
2023-11-18T11:59:13.835Z,100688.85
2023-11-18T12:02:05.862Z,100689.33
2023-11-18T12:04:59.446Z,100687.63
2023-11-18T12:07:49.653Z,100682.91
2023-11-18T12:10:39.040Z,100686.59
2023-11-18T12:13:27.708Z,100690.05
2023-11-18T12:16:22.045Z,100693.69
2023-11-18T12:19:47.959Z,100690.86
2023-11-18T12:23:15.817Z,100689.39
2023-11-18T12:26:41.496Z,100688.08
2023-11-18T12:29:37.808Z,100688.83
2023-11-18T12:33:13.001Z,100686.30
2023-11-18T12:36:34.336Z,100681.23
2023-11-18T12:40:26.093Z,100672.90
2023-11-18T12:43:19.052Z,100666.67
2023-11-18T12:46:28.854Z,100670.96
2023-11-18T12:49:20.965Z,100671.58
2023-11-18T12:52:16.073Z,100669.27
2023-11-18T12:55:04.116Z,100675.83
2023-11-18T12:57:55.651Z,100677.88
2023-11-18T13:00:44.557Z,100678.46
2023-11-18T13:03:35.755Z,100675.48
2023-11-18T13:06:28.141Z,100679.48
2023-11-18T13:09:26.497Z,100673.52
2023-11-18T13:12:21.554Z,100676.07
2023-11-18T13:15:11.838Z,100672.05
2023-11-18T13:18:00.330Z,100676.80
2023-11-18T13:20:59.267Z,100680.45
2023-11-18T13:23:54.109Z,100682.58
2023-11-18T13:26:43.370Z,100680.73
2023-11-18T13:29:33.241Z,100677.08
2023-11-18T13:32:27.953Z,100669.91
2023-11-18T13:35:20.509Z,100661.66
2023-11-18T13:38:08.701Z,100659.16
2023-11-18T13:40:58.143Z,100663.19
2023-11-18T13:43:48.622Z,100663.39
2023-11-18T13:46:41.629Z,100666.92
2023-11-18T13:49:32.705Z,100678.58
2023-11-18T13:52:22.205Z,100681.31
2023-11-18T13:55:18.407Z,100678.36
2023-11-18T13:58:07.732Z,100676.39
2023-11-18T14:00:57.223Z,100678.98
2023-11-18T14:03:45.688Z,100674.58
2023-11-18T14:06:33.482Z,100679.30
2023-11-18T14:09:22.518Z,100680.73
2023-11-18T14:12:10.774Z,100683.53
2023-11-18T14:14:58.588Z,100686.05
2023-11-18T14:17:47.647Z,100686.77
2023-11-18T14:20:36.857Z,100684.71
2023-11-18T14:23:24.851Z,100681.35
2023-11-18T14:26:12.610Z,100683.70
2023-11-18T14:29:01.015Z,100687.46
2023-11-18T14:31:48.901Z,100689.90
2023-11-18T14:34:36.725Z,100689.65
2023-11-18T14:37:24.432Z,100687.64
2023-11-18T14:40:17.290Z,100690.66
2023-11-18T14:43:05.992Z,100694.92
2023-11-18T14:45:54.206Z,100695.52
2023-11-18T14:48:42.327Z,100693.27
2023-11-18T14:51:30.866Z,100691.67
2023-11-18T14:54:19.175Z,100696.89
2023-11-18T14:57:06.893Z,100698.90
2023-11-18T14:59:54.918Z,100701.08
2023-11-18T15:02:42.633Z,100694.83
2023-11-18T15:05:32.298Z,100689.39
2023-11-18T15:08:20.127Z,100684.47
2023-11-18T15:11:08.371Z,100681.63
2023-11-18T15:13:57.705Z,100682.10
2023-11-18T15:16:48.180Z,100680.46
2023-11-18T15:19:36.744Z,100677.00
2023-11-18T15:22:24.560Z,100673.02
2023-11-18T15:25:14.049Z,100667.81
2023-11-18T15:28:02.275Z,100660.33
2023-11-18T15:30:50.114Z,100663.48
2023-11-18T15:33:38.704Z,100663.02
2023-11-18T15:36:26.813Z,100659.77
2023-11-18T15:39:16.124Z,100666.55
2023-11-18T15:42:06.924Z,100670.79
2023-11-18T15:44:57.120Z,100675.48
2023-11-18T15:47:47.488Z,100671.26
2023-11-18T15:50:38.993Z,100672.42
2023-11-18T15:53:29.134Z,100668.56
2023-11-18T15:56:16.928Z,100662.06
2023-11-18T15:59:05.051Z,100657.48
2023-11-18T16:01:53.404Z,100655.35
2023-11-18T16:04:41.166Z,100660.90
2023-11-18T16:07:28.882Z,100663.36
2023-11-18T16:10:22.806Z,100659.55
2023-11-18T16:13:10.730Z,100656.71
2023-11-18T16:15:58.595Z,100652.87
2023-11-18T16:18:46.840Z,100651.29
2023-11-18T16:21:38.922Z,100651.95
2023-11-18T16:24:27.142Z,100651.86
2023-11-18T16:27:16.100Z,100644.61
2023-11-18T16:30:08.790Z,100651.91
2023-11-18T16:33:05.643Z,100652.02
2023-11-18T16:35:54.372Z,100653.90
2023-11-18T16:38:42.718Z,100656.77
2023-11-18T16:41:43.063Z,100656.28
2023-11-18T16:44:34.335Z,100658.27
2023-11-18T16:47:23.290Z,100658.60
2023-11-18T16:50:13.182Z,100659.63
2023-11-18T16:53:01.247Z,100656.35
2023-11-18T16:55:48.980Z,100655.73
2023-11-18T16:58:36.644Z,100663.05
2023-11-18T17:01:25.823Z,100664.77
2023-11-18T17:04:13.674Z,100659.00
2023-11-18T17:07:02.211Z,100657.30
2023-11-18T17:09:50.049Z,100663.56
2023-11-18T17:12:48.977Z,100661.20
2023-11-18T17:15:36.421Z,100666.05
2023-11-18T17:18:24.060Z,100668.08
2023-11-18T17:21:11.935Z,100662.79
2023-11-18T17:23:59.659Z,100667.61
2023-11-18T17:26:47.907Z,100671.09
2023-11-18T17:29:35.528Z,100671.90
2023-11-18T17:32:23.969Z,100673.55
2023-11-18T17:35:16.297Z,100673.44
2023-11-18T17:38:07.914Z,100677.48
2023-11-18T17:40:56.796Z,100678.86
2023-11-18T17:43:44.695Z,100679.75
2023-11-18T17:46:32.651Z,100672.24
2023-11-18T17:49:23.233Z,100667.39
2023-11-18T17:52:11.307Z,100665.73
2023-11-18T17:54:59.390Z,100661.96
2023-11-18T17:57:48.280Z,100654.20
2023-11-18T18:00:37.412Z,100652.77
2023-11-18T18:03:25.349Z,100655.80
2023-11-18T18:06:14.207Z,100662.20
2023-11-18T18:09:01.823Z,100664.35
2023-11-18T18:11:49.633Z,100661.40
2023-11-18T18:14:37.730Z,100663.38
2023-11-18T18:17:25.868Z,100659.66
2023-11-18T18:20:15.129Z,100658.35
2023-11-18T18:23:02.928Z,100650.08
2023-11-18T18:25:50.915Z,100643.77
2023-11-18T18:28:38.543Z,100639.66
2023-11-18T18:31:26.192Z,100640.29
2023-11-18T18:34:14.365Z,100636.02
2023-11-18T18:37:02.105Z,100631.96
2023-11-18T18:39:53.826Z,100628.59
2023-11-18T18:42:41.758Z,100622.09
2023-11-18T18:45:32.004Z,100621.25
2023-11-18T18:48:20.121Z,100622.84
2023-11-18T18:51:08.281Z,100616.25
2023-11-18T18:53:56.055Z,100614.77
2023-11-18T18:56:43.888Z,100616.39
2023-11-18T18:59:32.437Z,100612.51
2023-11-18T19:02:20.456Z,100611.77
2023-11-18T19:05:10.047Z,100612.52
2023-11-18T19:07:59.155Z,100612.20
2023-11-18T19:10:48.751Z,100609.86
2023-11-18T19:13:36.842Z,100608.21
2023-11-18T19:16:24.981Z,100603.54
2023-11-18T19:19:13.014Z,100596.16
2023-11-18T19:22:01.937Z,100594.96
2023-11-18T19:24:50.998Z,100596.46
2023-11-18T19:27:44.051Z,100595.51
2023-11-18T19:30:33.012Z,100595.41
2023-11-18T19:33:21.167Z,100594.77
2023-11-18T19:36:13.133Z,100594.11
2023-11-18T19:39:02.190Z,100595.26
2023-11-18T19:41:51.522Z,100599.11
2023-11-18T19:44:39.944Z,100598.27
2023-11-18T19:47:31.226Z,100597.66
2023-11-18T19:50:27.302Z,100593.46
2023-11-18T19:53:15.925Z,100595.15
2023-11-18T19:56:04.358Z,100589.52
2023-11-18T19:58:52.965Z,100591.56
2023-11-18T20:01:40.986Z,100587.99
2023-11-18T20:04:29.908Z,100585.52
2023-11-18T20:07:19.615Z,100576.89
2023-11-18T20:10:10.171Z,100571.06
2023-11-18T20:12:57.813Z,100564.64
2023-11-18T20:15:46.716Z,100558.39
2023-11-18T20:18:34.495Z,100562.39
2023-11-18T20:21:22.469Z,100570.73
2023-11-18T20:24:10.734Z,100571.67
2023-11-18T20:26:59.152Z,100570.12
2023-11-18T20:29:46.712Z,100569.70
2023-11-18T20:32:35.339Z,100569.98
2023-11-18T20:35:23.084Z,100573.35
2023-11-18T20:38:13.478Z,100579.23
2023-11-18T20:41:01.528Z,100592.07
2023-11-18T20:43:49.209Z,100594.39
2023-11-18T20:46:37.139Z,100589.25
2023-11-18T20:49:26.194Z,100590.20
2023-11-18T20:52:15.115Z,100586.81
2023-11-18T20:55:02.969Z,100589.76
2023-11-18T20:57:51.191Z,100589.04
2023-11-18T21:00:38.938Z,100591.81
2023-11-18T21:03:26.785Z,100591.61
2023-11-18T21:06:21.352Z,100593.27
2023-11-18T21:09:09.943Z,100591.93
2023-11-18T21:12:17.212Z,100587.95
2023-11-18T21:15:09.111Z,100583.69
2023-11-18T21:17:56.828Z,100578.45
2023-11-18T21:20:45.980Z,100577.80
2023-11-18T21:23:33.929Z,100574.65
2023-11-18T21:26:23.998Z,100574.66
2023-11-18T21:29:13.134Z,100575.70
2023-11-18T21:32:00.664Z,100571.30
2023-11-18T21:34:48.952Z,100561.91
2023-11-18T21:37:37.480Z,100556.95
2023-11-18T21:40:27.974Z,100546.25
2023-11-18T21:43:15.900Z,100539.27
2023-11-18T21:46:04.024Z,100533.88
2023-11-18T21:48:51.868Z,100527.51
2023-11-18T21:51:39.702Z,100521.15
2023-11-18T21:54:32.113Z,100509.69
2023-11-18T21:57:19.695Z,100500.09
2023-11-18T22:00:12.437Z,100495.75
2023-11-18T22:03:04.301Z,100491.45
2023-11-18T22:05:51.988Z,100491.52
2023-11-18T22:08:40.098Z,100489.30
2023-11-18T22:14:24.524Z,100478.04
2023-11-18T22:17:12.698Z,100481.10
2023-11-18T22:20:01.574Z,100481.70
2023-11-18T22:22:50.504Z,100477.16
2023-11-18T22:25:38.292Z,100473.83
2023-11-18T22:28:25.733Z,100469.52
2023-11-18T22:31:13.690Z,100470.09
2023-11-18T22:34:01.322Z,100469.41
2023-11-18T22:36:49.777Z,100478.61
2023-11-18T22:39:37.668Z,100472.86
2023-11-18T22:42:26.101Z,100467.24
2023-11-18T22:45:17.758Z,100460.59
2023-11-18T22:48:07.732Z,100453.87
2023-11-18T22:50:55.083Z,100444.81
2023-11-18T22:53:43.770Z,100435.45
2023-11-18T22:56:32.086Z,100435.23
2023-11-18T22:59:21.186Z,100432.73
2023-11-18T23:02:12.116Z,100428.29
2023-11-18T23:05:07.243Z,100426.59
2023-11-18T23:07:58.913Z,100424.08
2023-11-18T23:10:47.712Z,100426.86
2023-11-18T23:13:36.886Z,100424.31
2023-11-18T23:16:24.922Z,100426.77
2023-11-18T23:19:13.014Z,100423.05
2023-11-18T23:22:07.883Z,100417.59
2023-11-18T23:24:56.042Z,100410.48
2023-11-18T23:27:45.303Z,100408.91
2023-11-18T23:30:33.072Z,100399.56
2023-11-18T23:33:20.518Z,100401.73
2023-11-18T23:36:08.935Z,100397.77
2023-11-18T23:39:02.686Z,100394.14
2023-11-18T23:41:51.015Z,100392.11
2023-11-18T23:44:38.419Z,100383.85
2023-11-18T23:47:25.987Z,100383.08
2023-11-18T23:50:13.726Z,100376.11
2023-11-18T23:53:02.102Z,100371.73
2023-11-18T23:55:49.877Z,100370.77
2023-11-18T23:58:37.383Z,100371.56
